Archival Weather

Half Moon Bay

Half Moon Bay, California (KHAF)

Report from: Thursday, September 21, 2023 2:55 AM PDT
Current time: Sunday, July 14, 2024 4:41 AM PDT

Current weather – Weather history – Daily summaries
Weather forecast

Temperature15.0°C (59.0°F)
Dew point12.0°C (53.6°F)
Winds 8 kts (4.1 m/s, 9.2 mph) South-Southeast (150°)
Visibility4 mi. (6.4 km)
Altimeter29.85 in.Hg (1011 mB)
Relative humidity82 %
Density altitude278 ft. (85 m)
Remarks Fully automated report
Automated weather observing station with precipitation discriminator
Flight conditions Marginal Visual Meteorological Conditions
Raw dataKHAF 210955Z AUTO 15008KT 4SM HZ 15/12 A2985 RMK AO2
An error has occurred. This application may no longer respond until reloaded. Reload 🗙